Latest Weather Observations for Kurnell

IDN60901

Issued at 3:01 am EST Thursday 28 May 2020 (issued every 10 minutes, with the page automatically refreshed every 10 minutes)

About weather observations | Map of Sydney area stations | Latest observations for Sydney area | Other Formats
Station Details ID: 066043 Name: KURNELL AWS Lat: -34.00 Lon: 151.21 Height: 4.0 m
Data from the previous 72 hours. | See also: Recent months at Kurnell
Date/Time
EST
Temp
°C
App
Temp
°C
Dew
Point
°C
Rel
Hum
%
Delta-T
°C
Wind Press
QNH
hPa
Press
MSL
hPa
Rain since
9am
mm
Dir  Spd
km/h
Gust
km/h
Spd
kts
Gust
kts
28/02:30am - - - - - NNW 9 11 5 6 - - -
28/02:00am - - - - - NNW 9 11 5 6 - - -
28/01:30am - - - - - WNW 9 11 5 6 - - -
28/01:00am - - - - - WNW 9 11 5 6 - - -
28/12:30am - - - - - WNW 13 15 7 8 - - -
28/12:00am - - - - - NW 9 11 5 6 - - -
 
Date/Time
EST
Temp
°C
App
Temp
°C
Dew
Point
°C
Rel
Hum
%
Delta-T
°C
Wind Press
QNH
hPa
Press
MSL
hPa
Rain since
9am
mm
Dir  Spd
km/h
Gust
km/h
Spd
kts
Gust
kts
27/11:30pm - - - - - W 9 13 5 7 - - -
27/11:00pm - - - - - CALM 0 7 0 4 - - -
27/10:30pm - - - - - W 11 11 6 6 - - -
27/10:00pm - - - - - WNW 9 11 5 6 - - -
27/09:30pm - - - - - NW 7 7 4 4 - - -
27/09:00pm - - - - - NW 7 7 4 4 - - -
27/08:30pm - - - - - CALM 0 0 0 0 - - -
27/08:00pm - - - - - W 2 6 1 3 - - -
27/07:30pm - - - - - WNW 9 11 5 6 - - -
27/07:00pm - - - - - CALM 0 0 0 0 - - -
27/06:30pm - - - - - S 7 9 4 5 - - -
27/06:00pm - - - - - S 7 7 4 4 - - -
27/05:30pm - - - - - S 7 9 4 5 - - -
27/05:00pm - - - - - SSE 6 9 3 5 - - -
27/04:30pm - - - - - S 9 11 5 6 - - -
27/04:00pm - - - - - S 13 15 7 8 - - -
27/03:30pm - - - - - S 13 17 7 9 - - -
27/03:00pm - - - - - S 13 19 7 10 - - -
27/02:30pm - - - - - SSW 17 19 9 10 - - -
27/02:00pm - - - - - S 17 20 9 11 - - -
27/01:30pm - - - - - S 20 28 11 15 - - -
27/01:00pm - - - - - SSW 19 26 10 14 - - -
27/12:30pm - - - - - SSW 19 26 10 14 - - -
27/12:00pm - - - - - SSW 22 28 12 15 - - -
27/11:30am - - - - - SSW 20 26 11 14 - - -
27/11:00am - - - - - SSE 13 17 7 9 - - -
27/10:30am - - - - - S 17 24 9 13 - - -
27/10:00am - - - - - SW 9 17 5 9 - - -
27/09:30am - - - - - WNW 6 9 3 5 - - -
27/09:00am - - - - - W 11 13 6 7 - - -
27/08:30am - - - - - W 17 19 9 10 - - -
27/08:00am - - - - - NW 15 17 8 9 - - -
27/07:30am - - - - - WNW 4 9 2 5 - - -
27/07:00am - - - - - WSW 7 9 4 5 - - -
27/06:30am - - - - - W 11 13 6 7 - - -
27/06:00am - - - - - WNW 13 15 7 8 - - -
27/05:30am - - - - - NW 13 15 7 8 - - -
27/05:00am - - - - - NW 17 19 9 10 - - -
27/04:30am - - - - - NW 15 17 8 9 - - -
27/04:00am - - - - - WNW 15 22 8 12 - - -
27/03:30am - - - - - NNW 15 20 8 11 - - -
27/03:00am - - - - - WNW 13 28 7 15 - - -
27/02:30am - - - - - WSW 13 20 7 11 - - -
27/02:00am - - - - - W 13 17 7 9 - - -
27/01:30am - - - - - WSW 15 19 8 10 - - -
27/01:00am - - - - - SSW 19 26 10 14 - - -
27/12:30am - - - - - WSW 15 19 8 10 - - -
27/12:00am - - - - - WSW 13 17 7 9 - - -
 
Date/Time
EST
Temp
°C
App
Temp
°C
Dew
Point
°C
Rel
Hum
%
Delta-T
°C
Wind Press
QNH
hPa
Press
MSL
hPa
Rain since
9am
mm
Dir  Spd
km/h
Gust
km/h
Spd
kts
Gust
kts
26/11:30pm - - - - - SE 9 11 5 6 - - -
26/11:00pm - - - - - ESE 13 20 7 11 - - -
26/10:30pm - - - - - SE 26 33 14 18 - - -
26/10:00pm - - - - - SE 22 33 12 18 - - -
26/09:30pm - - - - - SSE 17 24 9 13 - - -
26/09:00pm - - - - - S 17 26 9 14 - - -
26/08:30pm - - - - - SSW 19 28 10 15 - - -
26/08:00pm - - - - - SSW 19 28 10 15 - - -
26/07:30pm - - - - - S 15 20 8 11 - - -
26/07:00pm - - - - - S 20 28 11 15 - - -
26/06:30pm - - - - - SSE 15 22 8 12 - - -
26/06:00pm - - - - - SSW 15 24 8 13 - - -
26/05:30pm - - - - - SSE 19 33 10 18 - - -
26/05:00pm - - - - - S 20 28 11 15 - - -
26/04:30pm - - - - - SSE 20 33 11 18 - - -
26/04:00pm - - - - - S 26 37 14 20 - - -
26/03:30pm - - - - - SSE 22 33 12 18 - - -
26/03:00pm - - - - - SSE 24 35 13 19 - - -
26/02:30pm - - - - - S 26 35 14 19 - - -
26/02:00pm - - - - - SSE 30 43 16 23 - - -
26/01:30pm - - - - - SSE 24 33 13 18 - - -
26/01:00pm - - - - - S 30 41 16 22 - - -
26/12:30pm - - - - - SSE 28 39 15 21 - - -
26/12:00pm - - - - - SSE 33 43 18 23 - - -
26/11:30am - - - - - SSE 30 39 16 21 - - -
26/11:05am - - - - - SSE 28 46 15 25 - - -
26/11:00am - - - - - SSE 28 37 15 20 - - -
26/10:30am - - - - - SSE 28 41 15 22 - - -
26/10:00am - - - - - SSE 26 39 14 21 - - -
26/09:30am - - - - - SSE 28 37 15 20 - - -
26/09:00am - - - - - SSE 17 26 9 14 - - -
26/08:30am - - - - - SW 30 41 16 22 - - -
26/08:00am - - - - - SSW 32 41 17 22 - - -
26/07:30am - - - - - SSW 30 41 16 22 - - -
26/07:00am - - - - - SSW 33 48 18 26 - - -
26/06:30am - - - - - SSW 33 50 18 27 - - -
26/06:00am - - - - - SW 35 52 19 28 - - -
26/05:47am - - - - - SW 37 56 20 30 - - -
26/05:30am - - - - - SW 37 50 20 27 - - -
26/05:16am - - - - - SSW 39 57 21 31 - - -
26/05:00am - - - - - SW 35 52 19 28 - - -
26/04:38am - - - - - SW 39 57 21 31 - - -
26/04:30am - - - - - SW 43 57 23 31 - - -
26/04:12am - - - - - SW 37 56 20 30 - - -
26/04:00am - - - - - SW 41 52 22 28 - - -
26/03:30am - - - - - SSW 41 57 22 31 - - -
26/03:28am - - - - - SSW 39 57 21 31 - - -
26/03:00am - - - - - SSW 39 52 21 28 - - -
26/02:43am - - - - - SW 37 56 20 30 - - -
26/02:30am - - - - - SW 41 56 22 30 - - -
26/02:00am - - - - - SSW 46 65 25 35 - - -
26/01:30am - - - - - SSW 46 65 25 35 - - -
26/01:00am - - - - - SSW 41 61 22 33 - - -
26/12:34am - - - - - SSW 35 54 19 29 - - -
26/12:32am - - - - - SSW 35 50 19 27 - - -
26/12:30am - - - - - SSW 39 52 21 28 - - -
26/12:12am - - - - - SW 37 57 20 31 - - -
26/12:00am - - - - - SSW 41 54 22 29 - - -
 
Date/Time
EST
Temp
°C
App
Temp
°C
Dew
Point
°C
Rel
Hum
%
Delta-T
°C
Wind Press
QNH
hPa
Press
MSL
hPa
Rain since
9am
mm
Dir  Spd
km/h
Gust
km/h
Spd
kts
Gust
kts
25/11:40pm - - - - - SSW 44 63 24 34 - - -
25/11:30pm - - - - - SW 46 63 25 34 - - -
25/11:00pm - - - - - SW 39 59 21 32 - - -
25/10:53pm - - - - - SW 41 59 22 32 - - -
25/10:30pm - - - - - SSW 43 57 23 31 - - -
25/10:00pm - - - - - SW 41 59 22 32 - - -
25/09:45pm - - - - - SW 39 57 21 31 - - -
25/09:30pm - - - - - SW 37 48 20 26 - - -
25/09:00pm - - - - - SSW 39 52 21 28 - - -
25/08:30pm - - - - - SSW 44 63 24 34 - - -
25/08:00pm - - - - - SW 43 61 23 33 - - -
25/07:30pm - - - - - SSW 43 61 23 33 - - -
25/07:04pm - - - - - SW 41 59 22 32 - - -
25/07:00pm - - - - - SW 41 56 22 30 - - -
25/06:32pm - - - - - SW 41 59 22 32 - - -
25/06:30pm - - - - - SW 41 56 22 30 - - -
25/06:00pm - - - - - SW 46 69 25 37 - - -
25/05:33pm - - - - - SW 50 69 27 37 - - -
25/05:30pm - - - - - SW 52 69 28 37 - - -
25/05:00pm - - - - - SW 50 70 27 38 - - -
25/04:30pm - - - - - SW 50 72 27 39 - - -
25/04:00pm - - - - - SW 50 74 27 40 - - -
25/03:30pm - - - - - SSW 52 70 28 38 - - -
25/03:00pm - - - - - SW 54 72 29 39 - - -
25/02:30pm - - - - - SSW 54 74 29 40 - - -
25/02:00pm - - - - - SW 54 72 29 39 - - -
25/01:30pm - - - - - SSW 54 76 29 41 - - -
25/01:00pm - - - - - SSW 48 67 26 36 - - -
25/12:30pm - - - - - SW 50 72 27 39 - - -
25/12:00pm - - - - - SSW 56 76 30 41 - - -
25/11:33am - - - - - SW 50 69 27 37 - - -
25/11:30am - - - - - SW 48 61 26 33 - - -
25/11:00am - - - - - SW 48 67 26 36 - - -
25/10:30am - - - - - SW 39 57 21 31 - - -
25/10:00am - - - - - SW 43 56 23 30 - - -
25/09:30am - - - - - SW 46 65 25 35 - - -
25/09:02am - - - - - SW 44 63 24 34 - - -
25/09:00am - - - - - SW 43 59 23 32 - - -
25/08:30am - - - - - SW 44 63 24 34 - - -
25/08:01am - - - - - SW 44 63 24 34 - - -
25/08:00am - - - - - SW 46 63 25 34 - - -
25/07:30am - - - - - SW 48 70 26 38 - - -
25/07:05am - - - - - SW 44 63 24 34 - - -
25/07:00am - - - - - SW 43 57 23 31 - - -
25/06:30am - - - - - SW 43 61 23 33 - - -
25/06:24am - - - - - SW 43 61 23 33 - - -
25/06:00am - - - - - SW 46 61 25 33 - - -
25/05:53am - - - - - SW 41 59 22 32 - - -
25/05:30am - - - - - SW 43 59 23 32 - - -
25/05:02am - - - - - SW 39 57 21 31 - - -
25/05:00am - - - - - SW 39 54 21 29 - - -
25/04:55am - - - - - SW 39 57 21 31 - - -
25/04:30am - - - - - SW 43 57 23 31 - - -
25/04:09am - - - - - SW 43 61 23 33 - - -
25/04:00am - - - - - SW 46 61 25 33 - - -
25/03:37am - - - - - SW 39 57 21 31 - - -
25/03:30am - - - - - SW 44 57 24 31 - - -

Latest Capital City Observations: Canberra | Sydney | Melbourne | Brisbane | Adelaide | Perth | Hobart | Darwin

Other formats

Comma delimited format used in spreadsheet applications
http://www.bom.gov.au/fwo/IDN60901/IDN60901.95756.axf

JavaScript Object Notation format (JSON) in row-major order
http://www.bom.gov.au/fwo/IDN60901/IDN60901.95756.json

Data quality

Most of these data are generated automatically and are frequently updated. Quality checks on data are not normally performed. It is possible for incorrect values to appear. Refer to information at About Latest Weather Observations and please check the disclaimer before using these data.